sensor_id;sensor_type;location;lat;lon;timestamp;pressure;altitude;pressure_sealevel;temperature;humidity
79123;BME280;68526;44.600;26.032;2023-09-08T00:00:12;101052.47;;;19.63;53.89
79123;BME280;68526;44.600;26.032;2023-09-08T00:00:29;101045.28;;;19.62;53.74
79123;BME280;68526;44.600;26.032;2023-09-08T00:00:46;101050.13;;;19.65;53.87
79123;BME280;68526;44.600;26.032;2023-09-08T00:01:02;101040.91;;;19.61;53.92
79123;BME280;68526;44.600;26.032;2023-09-08T00:01:18;101049.31;;;19.65;54.07
79123;BME280;68526;44.600;26.032;2023-09-08T00:01:34;101048.53;;;19.64;54.03
79123;BME280;68526;44.600;26.032;2023-09-08T00:01:50;101042.16;;;19.64;54.07
79123;BME280;68526;44.600;26.032;2023-09-08T00:02:06;101050.03;;;19.62;53.86
79123;BME280;68526;44.600;26.032;2023-09-08T00:02:23;101047.63;;;19.60;53.85
79123;BME280;68526;44.600;26.032;2023-09-08T00:02:41;101043.69;;;19.61;53.77
79123;BME280;68526;44.600;26.032;2023-09-08T00:02:57;101049.22;;;19.61;53.77
79123;BME280;68526;44.600;26.032;2023-09-08T00:03:13;101048.81;;;19.59;53.85
79123;BME280;68526;44.600;26.032;2023-09-08T00:03:28;101055.97;;;19.60;53.89
79123;BME280;68526;44.600;26.032;2023-09-08T00:03:44;101048.81;;;19.59;53.77
79123;BME280;68526;44.600;26.032;2023-09-08T00:04:01;101052.75;;;19.58;53.71
79123;BME280;68526;44.600;26.032;2023-09-08T00:04:17;101047.19;;;19.58;53.76
79123;BME280;68526;44.600;26.032;2023-09-08T00:04:35;101051.47;;;19.56;54.08
79123;BME280;68526;44.600;26.032;2023-09-08T00:04:50;101044.31;;;19.55;54.06
79123;BME280;68526;44.600;26.032;2023-09-08T00:05:06;101052.63;;;19.55;53.96
79123;BME280;68526;44.600;26.032;2023-09-08T00:05:22;101052.75;;;19.58;54.13
79123;BME280;68526;44.600;26.032;2023-09-08T00:05:39;101048.34;;;19.57;54.06
79123;BME280;68526;44.600;26.032;2023-09-08T00:05:55;101045.91;;;19.56;53.89
79123;BME280;68526;44.600;26.032;2023-09-08T00:06:11;101052.63;;;19.55;53.94
79123;BME280;68526;44.600;26.032;2023-09-08T00:06:26;101050.66;;;19.55;54.00
79123;BME280;68526;44.600;26.032;2023-09-08T00:06:42;101047.88;;;19.55;53.95
79123;BME280;68526;44.600;26.032;2023-09-08T00:06:58;101047.53;;;19.57;53.90
79123;BME280;68526;44.600;26.032;2023-09-08T00:07:14;101047.53;;;19.57;53.89
79123;BME280;68526;44.600;26.032;2023-09-08T00:07:29;101046.72;;;19.56;53.80
79123;BME280;68526;44.600;26.032;2023-09-08T00:07:46;101036.75;;;19.55;53.85
79123;BME280;68526;44.600;26.032;2023-09-08T00:08:03;101042.59;;;19.50;54.08
79123;BME280;68526;44.600;26.032;2023-09-08T00:08:19;101048.16;;;19.50;53.77
79123;BME280;68526;44.600;26.032;2023-09-08T00:08:35;101048.63;;;19.52;53.70
79123;BME280;68526;44.600;26.032;2023-09-08T00:08:51;101049.81;;;19.51;53.80
79123;BME280;68526;44.600;26.032;2023-09-08T00:09:06;101050.22;;;19.53;53.63
79123;BME280;68526;44.600;26.032;2023-09-08T00:09:22;101046.72;;;19.56;53.65
79123;BME280;68526;44.600;26.032;2023-09-08T00:09:39;101045.56;;;19.57;53.45
79123;BME280;68526;44.600;26.032;2023-09-08T00:09:55;101048.81;;;19.59;53.40
79123;BME280;68526;44.600;26.032;2023-09-08T00:10:11;101045.22;;;19.59;53.73
79123;BME280;68526;44.600;26.032;2023-09-08T00:10:27;101048.00;;;19.59;53.89
79123;BME280;68526;44.600;26.032;2023-09-08T00:10:43;101054.72;;;19.58;54.02
79123;BME280;68526;44.600;26.032;2023-09-08T00:10:59;101046.81;;;19.60;53.70
79123;BME280;68526;44.600;26.032;2023-09-08T00:11:15;101049.16;;;19.58;53.63
79123;BME280;68526;44.600;26.032;2023-09-08T00:11:31;101049.16;;;19.58;53.83
79123;BME280;68526;44.600;26.032;2023-09-08T00:11:47;101041.66;;;19.58;53.67
79123;BME280;68526;44.600;26.032;2023-09-08T00:12:03;101051.94;;;19.58;53.58
79123;BME280;68526;44.600;26.032;2023-09-08T00:12:19;101049.50;;;19.56;53.83
79123;BME280;68526;44.600;26.032;2023-09-08T00:12:35;101051.41;;;19.52;53.83
79123;BME280;68526;44.600;26.032;2023-09-08T00:12:51;101055.34;;;19.51;53.43
79123;BME280;68526;44.600;26.032;2023-09-08T00:13:07;101049.44;;;19.53;53.47
79123;BME280;68526;44.600;26.032;2023-09-08T00:13:23;101049.84;;;19.55;53.21
79123;BME280;68526;44.600;26.032;2023-09-08T00:13:39;101048.97;;;19.51;52.92
79123;BME280;68526;44.600;26.032;2023-09-08T00:13:55;101050.94;;;19.50;53.35
79123;BME280;68526;44.600;26.032;2023-09-08T00:14:11;101045.31;;;19.46;53.16
79123;BME280;68526;44.600;26.032;2023-09-08T00:14:26;101053.72;;;19.50;53.55
79123;BME280;68526;44.600;26.032;2023-09-08T00:14:42;101043.41;;;19.51;53.49
79123;BME280;68526;44.600;26.032;2023-09-08T00:14:59;101051.75;;;19.51;53.88
79123;BME280;68526;44.600;26.032;2023-09-08T00:15:15;101044.94;;;19.48;53.43
79123;BME280;68526;44.600;26.032;2023-09-08T00:15:33;101053.66;;;19.46;53.44
79123;BME280;68526;44.600;26.032;2023-09-08T00:15:49;101054.53;;;19.51;53.37
79123;BME280;68526;44.600;26.032;2023-09-08T00:16:05;101054.53;;;19.51;53.23
79123;BME280;68526;44.600;26.032;2023-09-08T00:16:22;101058.19;;;19.55;53.25
79123;BME280;68526;44.600;26.032;2023-09-08T00:16:39;101056.22;;;19.55;53.21
79123;BME280;68526;44.600;26.032;2023-09-08T00:16:58;101052.22;;;19.53;53.11
79123;BME280;68526;44.600;26.032;2023-09-08T00:17:14;101052.91;;;19.49;53.00
79123;BME280;68526;44.600;26.032;2023-09-08T00:17:30;101058.47;;;19.49;53.19
79123;BME280;68526;44.600;26.032;2023-09-08T00:17:47;101050.50;;;19.48;53.77
79123;BME280;68526;44.600;26.032;2023-09-08T00:18:03;101052.50;;;19.47;53.57
79123;BME280;68526;44.600;26.032;2023-09-08T00:18:20;101046.13;;;19.47;53.54
79123;BME280;68526;44.600;26.032;2023-09-08T00:18:36;101052.50;;;19.47;53.73
79123;BME280;68526;44.600;26.032;2023-09-08T00:18:51;101052.84;;;19.46;53.69
79123;BME280;68526;44.600;26.032;2023-09-08T00:19:07;101056.50;;;19.50;53.26
79123;BME280;68526;44.600;26.032;2023-09-08T00:19:23;101051.69;;;19.47;53.14
79123;BME280;68526;44.600;26.032;2023-09-08T00:19:39;101056.16;;;19.52;53.28
79123;BME280;68526;44.600;26.032;2023-09-08T00:19:56;101056.97;;;19.52;53.07
79123;BME280;68526;44.600;26.032;2023-09-08T00:20:12;101057.31;;;19.51;53.09
79123;BME280;68526;44.600;26.032;2023-09-08T00:20:30;101054.53;;;19.51;53.17
79123;BME280;68526;44.600;26.032;2023-09-08T00:20:46;101048.16;;;19.50;53.28
79123;BME280;68526;44.600;26.032;2023-09-08T00:21:02;101057.66;;;19.49;53.34
79123;BME280;68526;44.600;26.032;2023-09-08T00:21:18;101047.72;;;19.48;53.34
79123;BME280;68526;44.600;26.032;2023-09-08T00:21:33;101056.50;;;19.50;53.16
79123;BME280;68526;44.600;26.032;2023-09-08T00:21:49;101050.94;;;19.50;nan
79123;BME280;68526;44.600;26.032;2023-09-08T00:22:05;101047.38;;;19.49;53.42
79123;BME280;68526;44.600;26.032;2023-09-08T00:22:21;101050.22;;;19.53;53.33
79123;BME280;68526;44.600;26.032;2023-09-08T00:22:38;101045.47;;;19.54;53.30
79123;BME280;68526;44.600;26.032;2023-09-08T00:22:54;101050.59;;;19.52;53.42
79123;BME280;68526;44.600;26.032;2023-09-08T00:23:10;101056.97;;;19.52;53.52
79123;BME280;68526;44.600;26.032;2023-09-08T00:23:26;101053.38;;;19.52;53.42
79123;BME280;68526;44.600;26.032;2023-09-08T00:23:43;101048.97;;;19.51;53.53
79123;BME280;68526;44.600;26.032;2023-09-08T00:23:59;101048.09;;;19.46;53.58
79123;BME280;68526;44.600;26.032;2023-09-08T00:24:16;101052.13;;;19.49;53.57
79123;BME280;68526;44.600;26.032;2023-09-08T00:24:33;101044.94;;;19.48;53.96
79123;BME280;68526;44.600;26.032;2023-09-08T00:24:49;101050.09;;;19.46;53.98
79123;BME280;68526;44.600;26.032;2023-09-08T00:25:06;101051.69;;;19.47;53.53
79123;BME280;68526;44.600;26.032;2023-09-08T00:25:22;101050.50;;;19.48;53.46
79123;BME280;68526;44.600;26.032;2023-09-08T00:25:37;101052.22;;;19.53;53.37
79123;BME280;68526;44.600;26.032;2023-09-08T00:25:53;101041.00;;;19.49;53.46
79123;BME280;68526;44.600;26.032;2023-09-08T00:26:10;101049.72;;;19.47;53.63
79123;BME280;68526;44.600;26.032;2023-09-08T00:26:26;101049.72;;;19.47;53.67
79123;BME280;68526;44.600;26.032;2023-09-08T00:26:42;101048.91;;;19.47;53.69
79123;BME280;68526;44.600;26.032;2023-09-08T00:26:58;101044.53;;;19.46;53.78
79123;BME280;68526;44.600;26.032;2023-09-08T00:27:14;101048.91;;;19.47;53.79
79123;BME280;68526;44.600;26.032;2023-09-08T00:27:30;101043.34;;;19.47;53.66
79123;BME280;68526;44.600;26.032;2023-09-08T00:27:47;101042.91;;;19.45;53.65
79123;BME280;68526;44.600;26.032;2023-09-08T00:28:03;101042.53;;;19.46;53.79
79123;BME280;68526;44.600;26.032;2023-09-08T00:28:19;101043.25;;;19.43;54.04
79123;BME280;68526;44.600;26.032;2023-09-08T00:28:35;101042.91;;;19.45;53.95
79123;BME280;68526;44.600;26.032;2023-09-08T00:28:51;101044.88;;;19.44;53.82
79123;BME280;68526;44.600;26.032;2023-09-08T00:29:07;101048.09;;;19.46;53.85
79123;BME280;68526;44.600;26.032;2023-09-08T00:29:23;101039.31;;;19.44;53.99
79123;BME280;68526;44.600;26.032;2023-09-08T00:29:39;101043.72;;;19.45;53.97
79123;BME280;68526;44.600;26.032;2023-09-08T00:29:55;101041.75;;;19.46;54.03
79123;BME280;68526;44.600;26.032;2023-09-08T00:30:12;101037.38;;;19.45;53.89
79123;BME280;68526;44.600;26.032;2023-09-08T00:30:28;101040.84;;;19.42;54.13
79123;BME280;68526;44.600;26.032;2023-09-08T00:30:43;101042.47;;;19.43;54.09
79123;BME280;68526;44.600;26.032;2023-09-08T00:31:00;101038.06;;;19.42;54.12
79123;BME280;68526;44.600;26.032;2023-09-08T00:31:16;101040.84;;;19.42;54.03
79123;BME280;68526;44.600;26.032;2023-09-08T00:31:32;101041.75;;;19.46;53.92
79123;BME280;68526;44.600;26.032;2023-09-08T00:31:48;101038.59;;;19.47;53.91
79123;BME280;68526;44.600;26.032;2023-09-08T00:32:04;101047.72;;;19.48;54.11
79123;BME280;68526;44.600;26.032;2023-09-08T00:32:20;101042.53;;;19.46;54.21
79123;BME280;68526;44.600;26.032;2023-09-08T00:32:36;101037.41;;;19.48;54.14
79123;BME280;68526;44.600;26.032;2023-09-08T00:32:54;101038.97;;;19.46;54.03
79123;BME280;68526;44.600;26.032;2023-09-08T00:33:10;101045.22;;;19.43;54.05
79123;BME280;68526;44.600;26.032;2023-09-08T00:33:28;101039.25;;;19.41;54.09
79123;BME280;68526;44.600;26.032;2023-09-08T00:33:43;101044.00;;;19.40;54.74
79123;BME280;68526;44.600;26.032;2023-09-08T00:33:59;101036.75;;;19.36;54.63
79123;BME280;68526;44.600;26.032;2023-09-08T00:34:15;101047.50;;;19.37;54.53
79123;BME280;68526;44.600;26.032;2023-09-08T00:34:31;101041.56;;;19.39;54.46
79123;BME280;68526;44.600;26.032;2023-09-08T00:34:47;101042.03;;;19.41;54.42
79123;BME280;68526;44.600;26.032;2023-09-08T00:35:06;101042.47;;;19.43;54.54
79123;BME280;68526;44.600;26.032;2023-09-08T00:35:21;101042.47;;;19.43;54.42
79123;BME280;68526;44.600;26.032;2023-09-08T00:35:38;101042.81;;;19.41;54.57
79123;BME280;68526;44.600;26.032;2023-09-08T00:35:54;101048.38;;;19.41;54.56
79123;BME280;68526;44.600;26.032;2023-09-08T00:36:12;101046.78;;;19.40;54.63
79123;BME280;68526;44.600;26.032;2023-09-08T00:36:28;101039.25;;;19.41;54.81
79123;BME280;68526;44.600;26.032;2023-09-08T00:36:45;101045.59;;;19.41;54.68
79123;BME280;68526;44.600;26.032;2023-09-08T00:37:01;101039.25;;;19.41;54.65
79123;BME280;68526;44.600;26.032;2023-09-08T00:37:22;101038.97;;;19.46;54.41
79123;BME280;68526;44.600;26.032;2023-09-08T00:37:38;101046.03;;;19.43;54.62
79123;BME280;68526;44.600;26.032;2023-09-08T00:37:54;101048.38;;;19.41;54.62
79123;BME280;68526;44.600;26.032;2023-09-08T00:38:11;101050.63;;;19.36;54.77
79123;BME280;68526;44.600;26.032;2023-09-08T00:38:27;101049.84;;;19.35;54.99
79123;BME280;68526;44.600;26.032;2023-09-08T00:38:42;101048.22;;;19.34;54.78
79123;BME280;68526;44.600;26.032;2023-09-08T00:38:58;101046.25;;;19.35;54.87
79123;BME280;68526;44.600;26.032;2023-09-08T00:39:14;101043.47;;;19.35;54.81
79123;BME280;68526;44.600;26.032;2023-09-08T00:39:30;101043.47;;;19.35;54.15
79123;BME280;68526;44.600;26.032;2023-09-08T00:39:46;101045.78;;;19.33;54.78
79123;BME280;68526;44.600;26.032;2023-09-08T00:40:02;101043.09;;;19.36;54.47
79123;BME280;68526;44.600;26.032;2023-09-08T00:40:18;101038.72;;;19.35;54.41
79123;BME280;68526;44.600;26.032;2023-09-08T00:40:34;101052.25;;;19.37;54.24
79123;BME280;68526;44.600;26.032;2023-09-08T00:40:50;101051.88;;;19.38;54.22
79123;BME280;68526;44.600;26.032;2023-09-08T00:41:06;101053.94;;;19.41;54.03
79123;BME280;68526;44.600;26.032;2023-09-08T00:41:22;101042.81;;;19.41;54.37
79123;BME280;68526;44.600;26.032;2023-09-08T00:41:39;101041.22;;;19.40;54.44
79123;BME280;68526;44.600;26.032;2023-09-08T00:41:54;101047.13;;;19.39;54.42
79123;BME280;68526;44.600;26.032;2023-09-08T00:42:10;101050.63;;;19.36;54.50
79123;BME280;68526;44.600;26.032;2023-09-08T00:42:27;101045.44;;;19.34;54.79
79123;BME280;68526;44.600;26.032;2023-09-08T00:42:42;101046.63;;;19.33;55.23
79123;BME280;68526;44.600;26.032;2023-09-08T00:42:58;101045.44;;;19.34;54.96
79123;BME280;68526;44.600;26.032;2023-09-08T00:43:14;101043.84;;;19.33;54.97
79123;BME280;68526;44.600;26.032;2023-09-08T00:43:30;101049.41;;;19.33;55.02
79123;BME280;68526;44.600;26.032;2023-09-08T00:43:46;101046.25;;;19.35;54.98
79123;BME280;68526;44.600;26.032;2023-09-08T00:44:02;101043.84;;;19.33;54.86
79123;BME280;68526;44.600;26.032;2023-09-08T00:44:17;101045.00;;;19.32;54.85
79123;BME280;68526;44.600;26.032;2023-09-08T00:44:34;101040.19;;;19.29;55.25
79123;BME280;68526;44.600;26.032;2023-09-08T00:44:50;101048.06;;;19.27;54.83
79123;BME280;68526;44.600;26.032;2023-09-08T00:45:06;101047.72;;;19.29;54.90
79123;BME280;68526;44.600;26.032;2023-09-08T00:45:22;101041.41;;;19.32;54.84
79123;BME280;68526;44.600;26.032;2023-09-08T00:45:40;101041.78;;;19.30;54.82
79123;BME280;68526;44.600;26.032;2023-09-08T00:45:57;101041.34;;;19.28;54.86
79123;BME280;68526;44.600;26.032;2023-09-08T00:46:14;101045.31;;;19.27;54.99
79123;BME280;68526;44.600;26.032;2023-09-08T00:46:31;101046.91;;;19.28;54.78
79123;BME280;68526;44.600;26.032;2023-09-08T00:46:46;101042.16;;;19.29;54.78
79123;BME280;68526;44.600;26.032;2023-09-08T00:47:02;101034.19;;;19.27;54.86
79123;BME280;68526;44.600;26.032;2023-09-08T00:47:18;101040.25;;;19.33;54.58
79123;BME280;68526;44.600;26.032;2023-09-08T00:47:34;101045.00;;;19.32;54.63
79123;BME280;68526;44.600;26.032;2023-09-08T00:47:50;101042.69;;;19.34;54.59
79123;BME280;68526;44.600;26.032;2023-09-08T00:48:08;101039.44;;;19.32;54.59
79123;BME280;68526;44.600;26.032;2023-09-08T00:48:24;101043.53;;;19.38;54.42
79123;BME280;68526;44.600;26.032;2023-09-08T00:48:41;101041.88;;;19.34;54.54
79123;BME280;68526;44.600;26.032;2023-09-08T00:48:57;101040.97;;;19.30;54.79
79123;BME280;68526;44.600;26.032;2023-09-08T00:49:13;101043.66;;;19.26;54.84
79123;BME280;68526;44.600;26.032;2023-09-08T00:49:29;101041.25;;;19.25;54.87
79123;BME280;68526;44.600;26.032;2023-09-08T00:49:45;101046.44;;;19.26;55.00
79123;BME280;68526;44.600;26.032;2023-09-08T00:50:02;101041.25;;;19.25;54.83
79123;BME280;68526;44.600;26.032;2023-09-08T00:50:19;101047.19;;;19.23;54.78
79123;BME280;68526;44.600;26.032;2023-09-08T00:50:36;101041.63;;;19.23;54.61
79123;BME280;68526;44.600;26.032;2023-09-08T00:50:52;101043.22;;;19.24;54.58
79123;BME280;68526;44.600;26.032;2023-09-08T00:51:08;101041.25;;;19.25;54.73
79123;BME280;68526;44.600;26.032;2023-09-08T00:51:25;101041.25;;;19.25;54.94
79123;BME280;68526;44.600;26.032;2023-09-08T00:51:41;101043.22;;;19.24;55.15
79123;BME280;68526;44.600;26.032;2023-09-08T00:51:57;101041.16;;;19.21;55.15
79123;BME280;68526;44.600;26.032;2023-09-08T00:52:13;101042.00;;;19.21;55.12
79123;BME280;68526;44.600;26.032;2023-09-08T00:52:30;101035.69;;;19.25;54.88
79123;BME280;68526;44.600;26.032;2023-09-08T00:52:48;101044.41;;;19.23;55.11
79123;BME280;68526;44.600;26.032;2023-09-08T00:53:05;101041.34;;;19.28;54.80
79123;BME280;68526;44.600;26.032;2023-09-08T00:53:21;101047.78;;;19.32;54.63
79123;BME280;68526;44.600;26.032;2023-09-08T00:53:37;101045.50;;;19.38;54.02
79123;BME280;68526;44.600;26.032;2023-09-08T00:53:53;101043.19;;;19.40;53.89
79123;BME280;68526;44.600;26.032;2023-09-08T00:54:09;101040.41;;;19.40;53.91
79123;BME280;68526;44.600;26.032;2023-09-08T00:54:25;101051.88;;;19.38;54.00
79123;BME280;68526;44.600;26.032;2023-09-08T00:54:41;101047.13;;;19.39;53.67
79123;BME280;68526;44.600;26.032;2023-09-08T00:55:00;101045.19;;;19.39;53.83
79123;BME280;68526;44.600;26.032;2023-09-08T00:55:16;101043.47;;;19.35;53.92
79123;BME280;68526;44.600;26.032;2023-09-08T00:55:33;101044.66;;;19.34;54.29
79123;BME280;68526;44.600;26.032;2023-09-08T00:55:50;101048.94;;;19.31;54.25
79123;BME280;68526;44.600;26.032;2023-09-08T00:56:07;101038.91;;;19.27;53.78
79123;BME280;68526;44.600;26.032;2023-09-08T00:56:24;101038.19;;;19.30;54.25
79123;BME280;68526;44.600;26.032;2023-09-08T00:56:41;101045.31;;;19.27;54.18
79123;BME280;68526;44.600;26.032;2023-09-08T00:56:59;101042.94;;;19.29;54.34
79123;BME280;68526;44.600;26.032;2023-09-08T00:57:17;101052.88;;;19.30;54.25
79123;BME280;68526;44.600;26.032;2023-09-08T00:57:33;101047.72;;;19.29;54.29
79123;BME280;68526;44.600;26.032;2023-09-08T00:57:49;101044.56;;;19.30;54.37
79123;BME280;68526;44.600;26.032;2023-09-08T00:58:04;101043.00;;;19.33;54.47
79123;BME280;68526;44.600;26.032;2023-09-08T00:58:21;101046.97;;;19.32;54.34
79123;BME280;68526;44.600;26.032;2023-09-08T00:58:38;101043.38;;;19.31;54.33
79123;BME280;68526;44.600;26.032;2023-09-08T00:58:54;101041.41;;;19.32;54.30
79123;BME280;68526;44.600;26.032;2023-09-08T00:59:10;101044.19;;;19.32;54.37
79123;BME280;68526;44.600;26.032;2023-09-08T00:59:25;101044.56;;;19.30;54.81
79123;BME280;68526;44.600;26.032;2023-09-08T00:59:42;101040.44;;;19.24;54.79
79123;BME280;68526;44.600;26.032;2023-09-08T00:59:58;101045.63;;;19.26;55.24
79123;BME280;68526;44.600;26.032;2023-09-08T01:00:16;101049.22;;;19.26;54.82
79123;BME280;68526;44.600;26.032;2023-09-08T01:00:31;101046.81;;;19.25;54.99
79123;BME280;68526;44.600;26.032;2023-09-08T01:00:47;101048.41;;;19.26;54.83
79123;BME280;68526;44.600;26.032;2023-09-08T01:01:03;101041.25;;;19.25;54.86
79123;BME280;68526;44.600;26.032;2023-09-08T01:01:21;101040.81;;;19.23;55.01
79123;BME280;68526;44.600;26.032;2023-09-08T01:01:37;101042.78;;;19.22;55.06
79123;BME280;68526;44.600;26.032;2023-09-08T01:01:53;101037.41;;;19.13;55.10
79123;BME280;68526;44.600;26.032;2023-09-08T01:02:08;101040.34;;;19.20;55.24
79123;BME280;68526;44.600;26.032;2023-09-08T01:02:25;101045.09;;;19.20;55.19
79123;BME280;68526;44.600;26.032;2023-09-08T01:02:41;101039.56;;;19.20;55.20
79123;BME280;68526;44.600;26.032;2023-09-08T01:03:00;101047.47;;;19.18;55.15
79123;BME280;68526;44.600;26.032;2023-09-08T01:03:17;101046.66;;;19.17;55.00
79123;BME280;68526;44.600;26.032;2023-09-08T01:03:33;101040.34;;;19.20;54.94
79123;BME280;68526;44.600;26.032;2023-09-08T01:03:49;101043.59;;;19.23;55.04
79123;BME280;68526;44.600;26.032;2023-09-08T01:04:06;101038.38;;;19.21;55.21
79123;BME280;68526;44.600;26.032;2023-09-08T01:04:21;101046.28;;;19.19;55.19
79123;BME280;68526;44.600;26.032;2023-09-08T01:04:37;101044.78;;;19.21;55.22
79123;BME280;68526;44.600;26.032;2023-09-08T01:04:56;101044.31;;;19.19;55.39
79123;BME280;68526;44.600;26.032;2023-09-08T01:05:14;101026.59;;;19.08;55.51
79123;BME280;68526;44.600;26.032;2023-09-08T01:05:29;101038.97;;;19.11;55.52
79123;BME280;68526;44.600;26.032;2023-09-08T01:05:47;101038.22;;;19.14;55.35
79123;BME280;68526;44.600;26.032;2023-09-08T01:06:04;101035.53;;;19.17;55.16
79123;BME280;68526;44.600;26.032;2023-09-08T01:06:21;101041.53;;;19.19;55.27
79123;BME280;68526;44.600;26.032;2023-09-08T01:06:37;101041.91;;;19.18;55.21
79123;BME280;68526;44.600;26.032;2023-09-08T01:06:54;101042.34;;;19.20;55.13
79123;BME280;68526;44.600;26.032;2023-09-08T01:07:11;101032.41;;;19.19;55.29
79123;BME280;68526;44.600;26.032;2023-09-08T01:07:28;101027.22;;;19.17;55.05
79123;BME280;68526;44.600;26.032;2023-09-08T01:07:46;101037.31;;;19.26;54.94
79123;BME280;68526;44.600;26.032;2023-09-08T01:08:03;101034.81;;;19.20;55.29
79123;BME280;68526;44.600;26.032;2023-09-08T01:08:20;101034.81;;;19.20;55.37
79123;BME280;68526;44.600;26.032;2023-09-08T01:08:36;101033.56;;;19.18;55.30
79123;BME280;68526;44.600;26.032;2023-09-08T01:08:52;101036.34;;;19.18;55.25
79123;BME280;68526;44.600;26.032;2023-09-08T01:09:09;101035.09;;;19.15;55.33
79123;BME280;68526;44.600;26.032;2023-09-08T01:09:26;101037.16;;;19.18;55.49
79123;BME280;68526;44.600;26.032;2023-09-08T01:09:43;101033.47;;;19.14;55.28
79123;BME280;68526;44.600;26.032;2023-09-08T01:09:59;101027.91;;;19.14;55.22
79123;BME280;68526;44.600;26.032;2023-09-08T01:10:19;101028.28;;;19.13;55.14
79123;BME280;68526;44.600;26.032;2023-09-08T01:10:35;101032.66;;;19.14;55.14
79123;BME280;68526;44.600;26.032;2023-09-08T01:10:52;101028.72;;;19.15;55.18
79123;BME280;68526;44.600;26.032;2023-09-08T01:11:08;101041.09;;;19.17;55.20
79123;BME280;68526;44.600;26.032;2023-09-08T01:11:25;101038.69;;;19.16;55.03
79123;BME280;68526;44.600;26.032;2023-09-08T01:11:42;101037.06;;;19.15;54.96
79123;BME280;68526;44.600;26.032;2023-09-08T01:11:58;101028.72;;;19.15;55.05
79123;BME280;68526;44.600;26.032;2023-09-08T01:12:17;101036.34;;;19.18;54.98
79123;BME280;68526;44.600;26.032;2023-09-08T01:12:34;101037.56;;;19.20;54.76
79123;BME280;68526;44.600;26.032;2023-09-08T01:12:50;101031.06;;;19.13;55.27
79123;BME280;68526;44.600;26.032;2023-09-08T01:13:06;101040.66;;;19.15;55.09
79123;BME280;68526;44.600;26.032;2023-09-08T01:13:22;101027.91;;;19.14;55.17
79123;BME280;68526;44.600;26.032;2023-09-08T01:13:37;101029.91;;;19.14;54.91
79123;BME280;68526;44.600;26.032;2023-09-08T01:13:54;101028.28;;;19.13;55.25
79123;BME280;68526;44.600;26.032;2023-09-08T01:14:11;101025.06;;;19.11;55.18
79123;BME280;68526;44.600;26.032;2023-09-08T01:14:29;101033.41;;;19.11;55.16
79123;BME280;68526;44.600;26.032;2023-09-08T01:14:45;101028.22;;;19.09;55.19
79123;BME280;68526;44.600;26.032;2023-09-08T01:15:00;101026.16;;;19.06;55.06
79123;BME280;68526;44.600;26.032;2023-09-08T01:15:16;101034.59;;;19.10;55.04
79123;BME280;68526;44.600;26.032;2023-09-08T01:15:32;101032.59;;;19.10;55.01
79123;BME280;68526;44.600;26.032;2023-09-08T01:15:48;101032.94;;;19.09;55.05
79123;BME280;68526;44.600;26.032;2023-09-08T01:16:05;101032.16;;;19.08;54.72
79123;BME280;68526;44.600;26.032;2023-09-08T01:16:20;101035.72;;;19.09;54.72
79123;BME280;68526;44.600;26.032;2023-09-08T01:16:36;101035.72;;;19.09;54.83
79123;BME280;68526;44.600;26.032;2023-09-08T01:16:52;101031.34;;;19.08;55.23
79123;BME280;68526;44.600;26.032;2023-09-08T01:17:08;101030.53;;;19.07;55.06
79123;BME280;68526;44.600;26.032;2023-09-08T01:17:25;101028.56;;;19.08;54.89
79123;BME280;68526;44.600;26.032;2023-09-08T01:17:40;101033.31;;;19.07;54.90
79123;BME280;68526;44.600;26.032;2023-09-08T01:17:57;101030.16;;;19.09;54.85
79123;BME280;68526;44.600;26.032;2023-09-08T01:18:13;101030.63;;;19.11;54.53
79123;BME280;68526;44.600;26.032;2023-09-08T01:18:30;101035.28;;;19.07;54.76
79123;BME280;68526;44.600;26.032;2023-09-08T01:18:47;101031.63;;;19.03;54.70
79123;BME280;68526;44.600;26.032;2023-09-08T01:19:06;101034.38;;;19.03;54.65
79123;BME280;68526;44.600;26.032;2023-09-08T01:19:22;101040.69;;;19.00;54.82
79123;BME280;68526;44.600;26.032;2023-09-08T01:19:38;101029.22;;;19.01;54.88
79123;BME280;68526;44.600;26.032;2023-09-08T01:19:55;101030.00;;;19.02;54.97
79123;BME280;68526;44.600;26.032;2023-09-08T01:20:15;101031.97;;;19.01;54.97
79123;BME280;68526;44.600;26.032;2023-09-08T01:20:46;101033.25;;;19.04;55.07
79123;BME280;68526;44.600;26.032;2023-09-08T01:22:06;101032.88;;;19.05;55.21
79123;BME280;68526;44.600;26.032;2023-09-08T01:22:45;101035.13;;;19.00;54.70
79123;BME280;68526;44.600;26.032;2023-09-08T01:23:17;101037.97;;;19.03;54.84
79123;BME280;68526;44.600;26.032;2023-09-08T01:23:45;101040.41;;;19.05;54.85
79123;BME280;68526;44.600;26.032;2023-09-08T01:24:21;101036.03;;;19.04;54.71
79123;BME280;68526;44.600;26.032;2023-09-08T01:25:05;101032.78;;;19.02;54.87
79123;BME280;68526;44.600;26.032;2023-09-08T01:25:24;101026.53;;;19.05;54.68
79123;BME280;68526;44.600;26.032;2023-09-08T01:25:46;101035.13;;;19.00;54.88
79123;BME280;68526;44.600;26.032;2023-09-08T01:26:08;101025.09;;;18.95;55.19
79123;BME280;68526;44.600;26.032;2023-09-08T01:26:27;101028.69;;;18.95;55.22
79123;BME280;68526;44.600;26.032;2023-09-08T01:26:46;101034.31;;;18.99;55.06
79123;BME280;68526;44.600;26.032;2023-09-08T01:27:04;101031.91;;;18.98;55.25
79123;BME280;68526;44.600;26.032;2023-09-08T01:27:24;101033.41;;;18.95;55.57
79123;BME280;68526;44.600;26.032;2023-09-08T01:27:45;101033.84;;;18.97;55.25
79123;BME280;68526;44.600;26.032;2023-09-08T01:28:02;101026.69;;;18.96;55.15